sensor_id;sensor_type;location;lat;lon;timestamp;pressure;altitude;pressure_sealevel;temperature;humidity
61554;BME280;47425;51.976;5.326;2023-04-22T00:00:20;100720.13;;;11.95;57.86
61554;BME280;47425;51.976;5.326;2023-04-22T00:02:47;100719.13;;;11.99;58.44
61554;BME280;47425;51.976;5.326;2023-04-22T00:05:13;100717.59;;;12.21;58.26
61554;BME280;47425;51.976;5.326;2023-04-22T00:07:40;100716.50;;;12.30;57.93
61554;BME280;47425;51.976;5.326;2023-04-22T00:10:08;100708.09;;;12.17;57.62
61554;BME280;47425;51.976;5.326;2023-04-22T00:12:35;100710.88;;;12.11;57.67
61554;BME280;47425;51.976;5.326;2023-04-22T00:15:01;100701.47;;;12.04;57.90
61554;BME280;47425;51.976;5.326;2023-04-22T00:17:30;100702.84;;;11.86;58.02
61554;BME280;47425;51.976;5.326;2023-04-22T00:19:58;100706.38;;;11.85;58.87
61554;BME280;47425;51.976;5.326;2023-04-22T00:22:25;100693.50;;;11.75;58.51
61554;BME280;47425;51.976;5.326;2023-04-22T00:24:59;100697.41;;;11.92;58.94
61554;BME280;47425;51.976;5.326;2023-04-22T00:27:25;100698.72;;;12.08;58.52
61554;BME280;47425;51.976;5.326;2023-04-22T00:29:52;100692.50;;;12.13;57.89
61554;BME280;47425;51.976;5.326;2023-04-22T00:32:19;100701.06;;;12.19;57.92
61554;BME280;47425;51.976;5.326;2023-04-22T00:34:48;100697.44;;;12.22;57.77
61554;BME280;47425;51.976;5.326;2023-04-22T00:37:16;100702.13;;;12.12;57.79
61554;BME280;47425;51.976;5.326;2023-04-22T00:39:42;100704.69;;;12.14;58.07
61554;BME280;47425;51.976;5.326;2023-04-22T00:42:08;100709.69;;;12.23;58.30
61554;BME280;47425;51.976;5.326;2023-04-22T00:44:35;100697.19;;;12.31;57.85
61554;BME280;47425;51.976;5.326;2023-04-22T00:47:21;100697.56;;;12.19;57.49
61554;BME280;47425;51.976;5.326;2023-04-22T00:49:52;100693.81;;;11.96;57.91
61554;BME280;47425;51.976;5.326;2023-04-22T00:52:19;100696.50;;;11.93;58.43
61554;BME280;47425;51.976;5.326;2023-04-22T00:54:45;100705.06;;;12.01;58.39
61554;BME280;47425;51.976;5.326;2023-04-22T00:57:14;100702.38;;;12.03;58.35
61554;BME280;47425;51.976;5.326;2023-04-22T00:59:42;100704.78;;;12.11;58.02
61554;BME280;47425;51.976;5.326;2023-04-22T01:02:09;100699.63;;;12.07;58.04
61554;BME280;47425;51.976;5.326;2023-04-22T01:04:37;100703.41;;;11.97;58.16
61554;BME280;47425;51.976;5.326;2023-04-22T01:07:05;100715.75;;;11.95;58.49
61554;BME280;47425;51.976;5.326;2023-04-22T01:09:31;100716.59;;;11.96;58.54
61554;BME280;47425;51.976;5.326;2023-04-22T01:12:18;100714.09;;;11.89;58.91
61554;BME280;47425;51.976;5.326;2023-04-22T01:14:46;100719.00;;;12.03;59.04
61554;BME280;47425;51.976;5.326;2023-04-22T01:17:12;100715.38;;;12.07;58.91
61554;BME280;47425;51.976;5.326;2023-04-22T01:19:40;100708.47;;;12.05;58.67
61554;BME280;47425;51.976;5.326;2023-04-22T01:22:08;100709.88;;;12.17;58.78
61554;BME280;47425;51.976;5.326;2023-04-22T01:24:40;100715.44;;;12.36;58.17
61554;BME280;47425;51.976;5.326;2023-04-22T01:27:06;100715.16;;;12.45;58.05
61554;BME280;47425;51.976;5.326;2023-04-22T01:29:33;100714.38;;;12.41;57.86
61554;BME280;47425;51.976;5.326;2023-04-22T01:32:01;100716.13;;;12.42;57.68
61554;BME280;47425;51.976;5.326;2023-04-22T01:34:29;100716.97;;;12.43;57.63
61554;BME280;47425;51.976;5.326;2023-04-22T01:36:56;100711.88;;;12.38;57.82
61554;BME280;47425;51.976;5.326;2023-04-22T01:39:22;100704.72;;;12.42;57.85
61554;BME280;47425;51.976;5.326;2023-04-22T01:41:51;100704.66;;;12.45;57.69
61554;BME280;47425;51.976;5.326;2023-04-22T01:44:18;100702.09;;;12.42;57.38
61554;BME280;47425;51.976;5.326;2023-04-22T01:46:44;100702.25;;;12.37;57.51
61554;BME280;47425;51.976;5.326;2023-04-22T01:49:11;100701.34;;;12.38;57.28
61554;BME280;47425;51.976;5.326;2023-04-22T01:51:39;100697.91;;;12.36;57.22
61554;BME280;47425;51.976;5.326;2023-04-22T01:54:05;100699.31;;;12.18;57.16
61554;BME280;47425;51.976;5.326;2023-04-22T01:56:32;100695.97;;;12.13;57.55
61554;BME280;47425;51.976;5.326;2023-04-22T01:59:00;100704.00;;;12.07;57.69
61554;BME280;47425;51.976;5.326;2023-04-22T02:01:31;100699.28;;;11.88;57.87
61554;BME280;47425;51.976;5.326;2023-04-22T02:03:58;100712.72;;;11.76;58.12
61554;BME280;47425;51.976;5.326;2023-04-22T02:06:25;100707.75;;;11.65;58.15
61554;BME280;47425;51.976;5.326;2023-04-22T02:08:53;100709.88;;;11.52;58.40
61554;BME280;47425;51.976;5.326;2023-04-22T02:11:19;100699.78;;;11.37;58.85
61554;BME280;47425;51.976;5.326;2023-04-22T02:13:46;100702.84;;;11.18;59.07
61554;BME280;47425;51.976;5.326;2023-04-22T02:16:14;100708.56;;;11.00;59.79
61554;BME280;47425;51.976;5.326;2023-04-22T02:18:41;100699.84;;;10.99;60.05
61554;BME280;47425;51.976;5.326;2023-04-22T02:21:08;100702.41;;;11.01;60.23
61554;BME280;47425;51.976;5.326;2023-04-22T02:23:39;100698.09;;;11.00;60.02
61554;BME280;47425;51.976;5.326;2023-04-22T02:26:07;100699.25;;;11.22;60.51
61554;BME280;47425;51.976;5.326;2023-04-22T02:28:34;100696.44;;;11.30;59.75
61554;BME280;47425;51.976;5.326;2023-04-22T02:31:00;100698.09;;;11.34;59.74
61554;BME280;47425;51.976;5.326;2023-04-22T02:33:28;100689.31;;;11.35;59.60
61554;BME280;47425;51.976;5.326;2023-04-22T02:35:56;100694.72;;;11.31;59.61
61554;BME280;47425;51.976;5.326;2023-04-22T02:38:22;100692.78;;;11.36;59.78
61554;BME280;47425;51.976;5.326;2023-04-22T02:40:49;100691.28;;;11.62;59.74
61554;BME280;47425;51.976;5.326;2023-04-22T02:43:16;100693.00;;;11.94;59.61
61554;BME280;47425;51.976;5.326;2023-04-22T02:45:43;100680.53;;;12.02;58.49
61554;BME280;47425;51.976;5.326;2023-04-22T02:48:09;100685.09;;;11.96;58.48
61554;BME280;47425;51.976;5.326;2023-04-22T02:50:37;100676.38;;;11.95;58.54
61554;BME280;47425;51.976;5.326;2023-04-22T02:53:05;100677.72;;;12.08;58.51
61554;BME280;47425;51.976;5.326;2023-04-22T02:55:32;100679.00;;;11.95;58.09
61554;BME280;47425;51.976;5.326;2023-04-22T02:57:59;100674.19;;;11.78;58.36
61554;BME280;47425;51.976;5.326;2023-04-22T03:00:25;100676.81;;;11.78;58.85
61554;BME280;47425;51.976;5.326;2023-04-22T03:02:53;100670.00;;;11.71;58.76
61554;BME280;47425;51.976;5.326;2023-04-22T03:05:24;100671.28;;;11.56;58.74
61554;BME280;47425;51.976;5.326;2023-04-22T03:07:52;100665.44;;;11.46;59.21
61554;BME280;47425;51.976;5.326;2023-04-22T03:10:20;100666.72;;;11.31;59.55
61554;BME280;47425;51.976;5.326;2023-04-22T03:12:49;100666.13;;;11.20;59.69
61554;BME280;47425;51.976;5.326;2023-04-22T03:15:15;100668.88;;;11.15;60.09
61554;BME280;47425;51.976;5.326;2023-04-22T03:17:42;100659.22;;;11.16;60.20
61554;BME280;47425;51.976;5.326;2023-04-22T03:20:12;100660.91;;;11.18;60.24
61554;BME280;47425;51.976;5.326;2023-04-22T03:22:40;100658.34;;;11.17;60.24
61554;BME280;47425;51.976;5.326;2023-04-22T03:25:10;100659.91;;;11.24;60.38
61554;BME280;47425;51.976;5.326;2023-04-22T03:27:36;100660.63;;;11.31;60.37
61554;BME280;47425;51.976;5.326;2023-04-22T03:30:05;100663.59;;;11.17;60.29
61554;BME280;47425;51.976;5.326;2023-04-22T03:32:31;100654.75;;;10.85;60.30
61554;BME280;47425;51.976;5.326;2023-04-22T03:35:21;100647.00;;;10.82;60.82
61554;BME280;47425;51.976;5.326;2023-04-22T03:37:49;100652.75;;;10.96;61.04
61554;BME280;47425;51.976;5.326;2023-04-22T03:40:23;100641.66;;;10.86;60.60
61554;BME280;47425;51.976;5.326;2023-04-22T03:42:52;100641.16;;;10.70;60.88
61554;BME280;47425;51.976;5.326;2023-04-22T03:45:20;100634.50;;;10.91;61.71
61554;BME280;47425;51.976;5.326;2023-04-22T03:47:55;100636.72;;;11.08;61.06
61554;BME280;47425;51.976;5.326;2023-04-22T03:50:32;100634.88;;;11.12;60.64
61554;BME280;47425;51.976;5.326;2023-04-22T03:53:00;100630.34;;;11.19;60.53
61554;BME280;47425;51.976;5.326;2023-04-22T03:55:28;100637.03;;;11.29;60.57
61554;BME280;47425;51.976;5.326;2023-04-22T03:57:54;100631.88;;;11.26;60.37
61554;BME280;47425;51.976;5.326;2023-04-22T04:00:22;100627.72;;;11.19;60.50
61554;BME280;47425;51.976;5.326;2023-04-22T04:03:01;100625.34;;;11.10;60.66
61554;BME280;47425;51.976;5.326;2023-04-22T04:05:29;100623.16;;;10.93;61.02
61554;BME280;47425;51.976;5.326;2023-04-22T04:07:55;100615.56;;;10.82;61.19
61554;BME280;47425;51.976;5.326;2023-04-22T04:10:23;100612.94;;;10.82;61.51
61554;BME280;47425;51.976;5.326;2023-04-22T04:12:52;100606.00;;;10.79;61.67
61554;BME280;47425;51.976;5.326;2023-04-22T04:15:20;100608.91;;;11.03;61.56
61554;BME280;47425;51.976;5.326;2023-04-22T04:17:49;100606.81;;;11.16;61.15
61554;BME280;47425;51.976;5.326;2023-04-22T04:20:18;100609.38;;;11.19;61.05
61554;BME280;47425;51.976;5.326;2023-04-22T04:22:44;100601.47;;;11.20;61.06
61554;BME280;47425;51.976;5.326;2023-04-22T04:25:12;100601.38;;;11.23;61.04
61554;BME280;47425;51.976;5.326;2023-04-22T04:27:43;100602.25;;;11.24;61.03
61554;BME280;47425;51.976;5.326;2023-04-22T04:30:12;100600.78;;;11.14;61.17
61554;BME280;47425;51.976;5.326;2023-04-22T04:32:44;100613.09;;;11.10;61.25
61554;BME280;47425;51.976;5.326;2023-04-22T04:35:15;100613.00;;;11.13;61.39
61554;BME280;47425;51.976;5.326;2023-04-22T04:37:50;100607.59;;;11.19;61.22
61554;BME280;47425;51.976;5.326;2023-04-22T04:40:19;100595.09;;;11.31;61.09
61554;BME280;47425;51.976;5.326;2023-04-22T04:42:52;100580.88;;;11.38;60.86
61554;BME280;47425;51.976;5.326;2023-04-22T04:45:26;100581.09;;;11.30;60.78
61554;BME280;47425;51.976;5.326;2023-04-22T04:47:55;100584.75;;;11.24;61.07
61554;BME280;47425;51.976;5.326;2023-04-22T04:50:26;100582.19;;;11.23;61.04
61554;BME280;47425;51.976;5.326;2023-04-22T04:52:58;100573.38;;;11.25;61.10
61554;BME280;47425;51.976;5.326;2023-04-22T04:55:32;100584.19;;;11.45;61.23
61554;BME280;47425;51.976;5.326;2023-04-22T04:58:04;100584.47;;;11.65;60.78
61554;BME280;47425;51.976;5.326;2023-04-22T05:00:33;100581.53;;;11.76;60.45
61554;BME280;47425;51.976;5.326;2023-04-22T05:02:59;100579.06;;;11.71;60.22
61554;BME280;47425;51.976;5.326;2023-04-22T05:05:26;100580.22;;;11.61;60.32
61554;BME280;47425;51.976;5.326;2023-04-22T05:07:53;100589.72;;;11.65;60.68
61554;BME280;47425;51.976;5.326;2023-04-22T05:10:21;100591.19;;;11.75;60.66
61554;BME280;47425;51.976;5.326;2023-04-22T05:12:48;100587.94;;;11.67;60.29
61554;BME280;47425;51.976;5.326;2023-04-22T05:15:20;100597.38;;;11.73;60.46
61554;BME280;47425;51.976;5.326;2023-04-22T05:17:48;100597.00;;;11.85;60.44
61554;BME280;47425;51.976;5.326;2023-04-22T05:20:15;100602.31;;;11.84;60.42
61554;BME280;47425;51.976;5.326;2023-04-22T05:22:42;100602.88;;;11.93;60.39
61554;BME280;47425;51.976;5.326;2023-04-22T05:25:10;100604.47;;;12.01;60.21
61554;BME280;47425;51.976;5.326;2023-04-22T05:27:43;100602.41;;;12.11;59.95
61554;BME280;47425;51.976;5.326;2023-04-22T05:30:12;100603.03;;;12.19;59.98
61554;BME280;47425;51.976;5.326;2023-04-22T05:32:39;100605.53;;;12.23;59.80
61554;BME280;47425;51.976;5.326;2023-04-22T05:35:07;100606.16;;;12.32;59.87
61554;BME280;47425;51.976;5.326;2023-04-22T05:37:35;100605.81;;;12.42;59.82
61554;BME280;47425;51.976;5.326;2023-04-22T05:40:02;100609.88;;;12.51;59.42
61554;BME280;47425;51.976;5.326;2023-04-22T05:42:29;100603.50;;;12.60;59.33
61554;BME280;47425;51.976;5.326;2023-04-22T05:44:56;100598.59;;;12.76;59.24
61554;BME280;47425;51.976;5.326;2023-04-22T05:47:23;100600.44;;;12.99;59.04
61554;BME280;47425;51.976;5.326;2023-04-22T05:49:50;100601.56;;;13.17;58.31
61554;BME280;47425;51.976;5.326;2023-04-22T05:52:50;100593.00;;;13.37;58.07
61554;BME280;47425;51.976;5.326;2023-04-22T05:55:17;100601.44;;;13.47;57.75
61554;BME280;47425;51.976;5.326;2023-04-22T05:57:44;100602.53;;;13.40;57.55
61554;BME280;47425;51.976;5.326;2023-04-22T06:00:23;100599.59;;;13.49;57.86
61554;BME280;47425;51.976;5.326;2023-04-22T06:03:04;100605.78;;;13.72;57.39
61554;BME280;47425;51.976;5.326;2023-04-22T06:05:31;100595.75;;;13.82;57.25
61554;BME280;47425;51.976;5.326;2023-04-22T06:08:00;100595.19;;;13.73;57.13
61554;BME280;47425;51.976;5.326;2023-04-22T06:10:27;100600.38;;;13.75;57.11
61554;BME280;47425;51.976;5.326;2023-04-22T06:12:53;100596.00;;;13.75;57.07
61554;BME280;47425;51.976;5.326;2023-04-22T06:15:21;100583.88;;;13.71;57.12
61554;BME280;47425;51.976;5.326;2023-04-22T06:17:48;100589.13;;;13.71;57.38
61554;BME280;47425;51.976;5.326;2023-04-22T06:20:15;100575.69;;;13.79;57.28
61554;BME280;47425;51.976;5.326;2023-04-22T06:22:42;100579.03;;;13.83;57.64
61554;BME280;47425;51.976;5.326;2023-04-22T06:25:11;100578.69;;;13.92;57.33
61554;BME280;47425;51.976;5.326;2023-04-22T06:27:37;100578.53;;;13.97;57.39
61554;BME280;47425;51.976;5.326;2023-04-22T06:30:05;100576.25;;;14.09;57.21
61554;BME280;47425;51.976;5.326;2023-04-22T06:32:32;100570.25;;;14.06;57.60
61554;BME280;47425;51.976;5.326;2023-04-22T06:35:01;100565.19;;;14.01;58.12
61554;BME280;47425;51.976;5.326;2023-04-22T06:37:27;100561.53;;;13.82;58.21
61554;BME280;47425;51.976;5.326;2023-04-22T06:39:54;100552.78;;;13.81;58.52
61554;BME280;47425;51.976;5.326;2023-04-22T06:42:46;100559.59;;;13.87;58.78
61554;BME280;47425;51.976;5.326;2023-04-22T06:45:28;100562.41;;;14.04;58.39
61554;BME280;47425;51.976;5.326;2023-04-22T06:48:25;100559.88;;;14.25;58.33
61554;BME280;47425;51.976;5.326;2023-04-22T06:51:29;100563.34;;;14.48;57.29
61554;BME280;47425;51.976;5.326;2023-04-22T06:53:57;100572.50;;;14.82;55.72
61554;BME280;47425;51.976;5.326;2023-04-22T06:56:24;100567.03;;;15.07;54.74
61554;BME280;47425;51.976;5.326;2023-04-22T06:58:52;100564.56;;;15.23;55.01
61554;BME280;47425;51.976;5.326;2023-04-22T07:01:18;100559.59;;;15.36;55.15
61554;BME280;47425;51.976;5.326;2023-04-22T07:03:45;100556.94;;;15.36;55.25
61554;BME280;47425;51.976;5.326;2023-04-22T07:06:13;100549.44;;;15.47;54.47
61554;BME280;47425;51.976;5.326;2023-04-22T07:08:40;100559.56;;;15.56;54.18
61554;BME280;47425;51.976;5.326;2023-04-22T07:11:07;100555.19;;;15.74;52.33
61554;BME280;47425;51.976;5.326;2023-04-22T07:13:41;100555.66;;;15.84;52.87
61554;BME280;47425;51.976;5.326;2023-04-22T07:16:10;100556.94;;;15.94;52.52
61554;BME280;47425;51.976;5.326;2023-04-22T07:18:36;100557.22;;;16.07;51.55
61554;BME280;47425;51.976;5.326;2023-04-22T07:21:04;100546.91;;;16.20;50.88
61554;BME280;47425;51.976;5.326;2023-04-22T07:23:32;100545.59;;;16.29;51.54
61554;BME280;47425;51.976;5.326;2023-04-22T07:25:58;100546.84;;;16.39;50.27
61554;BME280;47425;51.976;5.326;2023-04-22T07:28:24;100542.28;;;16.60;51.51
61554;BME280;47425;51.976;5.326;2023-04-22T07:30:52;100533.72;;;16.55;51.33
61554;BME280;47425;51.976;5.326;2023-04-22T07:33:22;100534.50;;;16.57;50.78
61554;BME280;47425;51.976;5.326;2023-04-22T07:35:48;100547.19;;;16.68;48.36
61554;BME280;47425;51.976;5.326;2023-04-22T07:38:15;100553.31;;;16.86;48.29
61554;BME280;47425;51.976;5.326;2023-04-22T07:40:43;100556.06;;;17.02;46.93
61554;BME280;47425;51.976;5.326;2023-04-22T07:43:09;100560.22;;;17.24;46.76
61554;BME280;47425;51.976;5.326;2023-04-22T07:45:35;100572.75;;;17.38;46.12
61554;BME280;47425;51.976;5.326;2023-04-22T07:48:05;100573.28;;;17.44;46.29
61554;BME280;47425;51.976;5.326;2023-04-22T07:50:34;100571.59;;;17.59;45.76
61554;BME280;47425;51.976;5.326;2023-04-22T07:53:00;100572.72;;;17.71;45.94
61554;BME280;47425;51.976;5.326;2023-04-22T07:55:26;100577.66;;;17.77;45.82
61554;BME280;47425;51.976;5.326;2023-04-22T07:57:54;100568.69;;;17.80;46.45
61554;BME280;47425;51.976;5.326;2023-04-22T08:00:20;100564.50;;;17.76;46.82
61554;BME280;47425;51.976;5.326;2023-04-22T08:02:47;100559.72;;;17.83;45.21
61554;BME280;47425;51.976;5.326;2023-04-22T08:05:13;100552.56;;;17.85;46.09
61554;BME280;47425;51.976;5.326;2023-04-22T08:07:42;100550.38;;;17.93;44.58
61554;BME280;47425;51.976;5.326;2023-04-22T08:10:09;100545.22;;;18.06;43.98
61554;BME280;47425;51.976;5.326;2023-04-22T08:12:35;100534.97;;;18.00;45.45
61554;BME280;47425;51.976;5.326;2023-04-22T08:15:03;100541.44;;;17.78;47.60
61554;BME280;47425;51.976;5.326;2023-04-22T08:17:30;100535.03;;;17.66;46.07
61554;BME280;47425;51.976;5.326;2023-04-22T08:19:56;100522.72;;;17.81;44.77
61554;BME280;47425;51.976;5.326;2023-04-22T08:22:23;100515.66;;;17.98;44.32
61554;BME280;47425;51.976;5.326;2023-04-22T08:24:52;100523.25;;;18.04;46.48
61554;BME280;47425;51.976;5.326;2023-04-22T08:27:19;100517.47;;;17.97;46.79
61554;BME280;47425;51.976;5.326;2023-04-22T08:29:46;100526.06;;;18.01;45.22
61554;BME280;47425;51.976;5.326;2023-04-22T08:32:12;100521.22;;;18.09;45.27
61554;BME280;47425;51.976;5.326;2023-04-22T08:34:39;100514.41;;;18.19;46.78
61554;BME280;47425;51.976;5.326;2023-04-22T08:37:06;100525.03;;;18.03;47.35
61554;BME280;47425;51.976;5.326;2023-04-22T08:39:33;100518.47;;;17.94;46.00
61554;BME280;47425;51.976;5.326;2023-04-22T08:42:02;100519.91;;;18.00;45.59
61554;BME280;47425;51.976;5.326;2023-04-22T08:44:28;100518.28;;;18.14;45.11
61554;BME280;47425;51.976;5.326;2023-04-22T08:46:55;100514.91;;;18.26;45.45
61554;BME280;47425;51.976;5.326;2023-04-22T08:49:26;100511.47;;;18.40;43.94
61554;BME280;47425;51.976;5.326;2023-04-22T08:51:55;100513.50;;;18.51;43.12
61554;BME280;47425;51.976;5.326;2023-04-22T08:54:22;100510.13;;;18.63;42.55
61554;BME280;47425;51.976;5.326;2023-04-22T08:56:48;100518.38;;;18.73;42.30
61554;BME280;47425;51.976;5.326;2023-04-22T08:59:20;100507.09;;;18.84;42.69
61554;BME280;47425;51.976;5.326;2023-04-22T09:01:51;100497.09;;;18.89;42.23
61554;BME280;47425;51.976;5.326;2023-04-22T09:04:18;100481.88;;;18.92;43.49
61554;BME280;47425;51.976;5.326;2023-04-22T09:06:44;100484.41;;;18.94;42.05
61554;BME280;47425;51.976;5.326;2023-04-22T09:09:12;100480.53;;;19.00;41.41
61554;BME280;47425;51.976;5.326;2023-04-22T09:11:39;100481.94;;;19.05;42.22
61554;BME280;47425;51.976;5.326;2023-04-22T09:14:06;100478.28;;;18.93;43.11
61554;BME280;47425;51.976;5.326;2023-04-22T09:16:36;100474.75;;;18.93;43.21
61554;BME280;47425;51.976;5.326;2023-04-22T09:19:10;100468.50;;;18.94;44.57
61554;BME280;47425;51.976;5.326;2023-04-22T09:21:38;100469.22;;;18.96;42.96
61554;BME280;47425;51.976;5.326;2023-04-22T09:24:05;100469.63;;;19.04;42.02
61554;BME280;47425;51.976;5.326;2023-04-22T09:26:33;100462.16;;;19.11;42.91
61554;BME280;47425;51.976;5.326;2023-04-22T09:28:59;100459.78;;;19.06;45.34
61554;BME280;47425;51.976;5.326;2023-04-22T09:31:26;100451.34;;;19.00;45.27
61554;BME280;47425;51.976;5.326;2023-04-22T09:33:55;100443.38;;;19.00;45.44
61554;BME280;47425;51.976;5.326;2023-04-22T09:36:24;100433.44;;;19.03;45.52
61554;BME280;47425;51.976;5.326;2023-04-22T09:38:51;100437.22;;;18.99;45.71
61554;BME280;47425;51.976;5.326;2023-04-22T09:41:25;100440.25;;;18.93;45.83
61554;BME280;47425;51.976;5.326;2023-04-22T09:43:51;100441.38;;;18.89;46.58
61554;BME280;47425;51.976;5.326;2023-04-22T09:46:21;100442.47;;;18.70;48.43
61554;BME280;47425;51.976;5.326;2023-04-22T09:48:47;100440.78;;;18.55;48.59
61554;BME280;47425;51.976;5.326;2023-04-22T09:51:16;100435.00;;;18.63;47.89
61554;BME280;47425;51.976;5.326;2023-04-22T09:53:44;100437.56;;;18.78;48.00
61554;BME280;47425;51.976;5.326;2023-04-22T09:56:11;100437.91;;;18.88;44.43
61554;BME280;47425;51.976;5.326;2023-04-22T09:58:37;100440.81;;;18.98;45.42
61554;BME280;47425;51.976;5.326;2023-04-22T10:01:04;100429.63;;;19.07;43.33
61554;BME280;47425;51.976;5.326;2023-04-22T10:03:32;100433.50;;;19.16;42.45
61554;BME280;47425;51.976;5.326;2023-04-22T10:05:58;100428.38;;;19.27;42.99
61554;BME280;47425;51.976;5.326;2023-04-22T10:08:26;100437.53;;;19.36;42.24
61554;BME280;47425;51.976;5.326;2023-04-22T10:11:11;100439.03;;;19.40;41.16
61554;BME280;47425;51.976;5.326;2023-04-22T10:13:39;100433.72;;;19.40;41.54
61554;BME280;47425;51.976;5.326;2023-04-22T10:16:05;100442.16;;;19.47;41.72
61554;BME280;47425;51.976;5.326;2023-04-22T10:18:32;100440.28;;;19.49;41.50
61554;BME280;47425;51.976;5.326;2023-04-22T10:21:00;100438.97;;;19.42;41.07
61554;BME280;47425;51.976;5.326;2023-04-22T10:23:31;100442.25;;;19.45;40.84
61554;BME280;47425;51.976;5.326;2023-04-22T10:25:58;100448.34;;;19.48;40.90
61554;BME280;47425;51.976;5.326;2023-04-22T10:28:26;100449.19;;;19.48;40.63
61554;BME280;47425;51.976;5.326;2023-04-22T10:30:53;100448.25;;;19.49;40.40
61554;BME280;47425;51.976;5.326;2023-04-22T10:33:35;100454.97;;;19.55;42.90
61554;BME280;47425;51.976;5.326;2023-04-22T10:36:05;100460.56;;;19.50;40.90
61554;BME280;47425;51.976;5.326;2023-04-22T10:38:34;100450.59;;;19.54;40.65
61554;BME280;47425;51.976;5.326;2023-04-22T10:41:01;100447.34;;;19.63;41.00
61554;BME280;47425;51.976;5.326;2023-04-22T10:43:41;100449.41;;;19.72;40.65
61554;BME280;47425;51.976;5.326;2023-04-22T10:48:51;100460.13;;;19.71;40.10
61554;BME280;47425;51.976;5.326;2023-04-22T10:54:05;100465.66;;;19.68;40.42
61554;BME280;47425;51.976;5.326;2023-04-22T10:56:32;100470.78;;;19.56;40.57
61554;BME280;47425;51.976;5.326;2023-04-22T10:58:59;100470.44;;;19.48;40.98
61554;BME280;47425;51.976;5.326;2023-04-22T11:01:40;100477.00;;;19.42;41.00
61554;BME280;47425;51.976;5.326;2023-04-22T11:04:17;100477.84;;;19.43;41.19
61554;BME280;47425;51.976;5.326;2023-04-22T11:06:45;100466.72;;;19.51;40.91
61554;BME280;47425;51.976;5.326;2023-04-22T11:09:34;100450.19;;;19.60;40.92
61554;BME280;47425;51.976;5.326;2023-04-22T11:14:51;100458.72;;;19.65;40.43
61554;BME280;47425;51.976;5.326;2023-04-22T11:17:18;100456.53;;;19.72;40.86
61554;BME280;47425;51.976;5.326;2023-04-22T11:19:45;100466.09;;;19.74;40.79
61554;BME280;47425;51.976;5.326;2023-04-22T11:22:12;100464.59;;;19.70;40.56
61554;BME280;47425;51.976;5.326;2023-04-22T11:24:40;100461.78;;;19.59;40.41
61554;BME280;47425;51.976;5.326;2023-04-22T11:27:19;100450.22;;;19.45;41.39
61554;BME280;47425;51.976;5.326;2023-04-22T11:30:00;100445.22;;;19.41;41.27
61554;BME280;47425;51.976;5.326;2023-04-22T11:32:28;100447.22;;;19.37;41.29
61554;BME280;47425;51.976;5.326;2023-04-22T11:34:55;100451.69;;;19.37;41.05
61554;BME280;47425;51.976;5.326;2023-04-22T11:37:23;100461.75;;;19.32;41.37
61554;BME280;47425;51.976;5.326;2023-04-22T11:39:51;100481.56;;;19.26;41.29
61554;BME280;47425;51.976;5.326;2023-04-22T11:42:19;100483.84;;;19.18;41.29
61554;BME280;47425;51.976;5.326;2023-04-22T11:44:47;100470.66;;;19.16;41.73
61554;BME280;47425;51.976;5.326;2023-04-22T11:47:13;100485.16;;;19.10;41.56
61554;BME280;47425;51.976;5.326;2023-04-22T11:49:40;100484.13;;;19.13;41.87
61554;BME280;47425;51.976;5.326;2023-04-22T11:52:06;100485.63;;;19.17;41.87
61554;BME280;47425;51.976;5.326;2023-04-22T11:54:35;100489.91;;;19.20;41.77
61554;BME280;47425;51.976;5.326;2023-04-22T11:57:04;100488.97;;;19.21;41.52
61554;BME280;47425;51.976;5.326;2023-04-22T11:59:30;100479.03;;;19.24;41.64
61554;BME280;47425;51.976;5.326;2023-04-22T12:01:58;100477.41;;;19.22;41.66
61554;BME280;47425;51.976;5.326;2023-04-22T12:04:24;100479.38;;;19.18;41.71
61554;BME280;47425;51.976;5.326;2023-04-22T12:06:51;100470.75;;;19.15;43.28
61554;BME280;47425;51.976;5.326;2023-04-22T12:09:18;100477.88;;;19.14;41.68
61554;BME280;47425;51.976;5.326;2023-04-22T12:11:51;100478.91;;;19.11;42.56
61554;BME280;47425;51.976;5.326;2023-04-22T12:14:18;100493.44;;;19.06;41.79
61554;BME280;47425;51.976;5.326;2023-04-22T12:16:45;100484.91;;;19.01;42.21
61554;BME280;47425;51.976;5.326;2023-04-22T12:19:13;100473.03;;;18.92;43.91
61554;BME280;47425;51.976;5.326;2023-04-22T12:21:39;100482.91;;;18.90;42.77
61554;BME280;47425;51.976;5.326;2023-04-22T12:24:07;100485.44;;;18.91;42.35
61554;BME280;47425;51.976;5.326;2023-04-22T12:26:34;100487.28;;;18.91;43.89
61554;BME280;47425;51.976;5.326;2023-04-22T12:29:03;100487.59;;;18.85;42.80
61554;BME280;47425;51.976;5.326;2023-04-22T12:31:30;100488.44;;;18.71;44.61
61554;BME280;47425;51.976;5.326;2023-04-22T12:33:57;100495.34;;;18.59;43.68
61554;BME280;47425;51.976;5.326;2023-04-22T12:36:25;100488.50;;;18.55;43.32
61554;BME280;47425;51.976;5.326;2023-04-22T12:38:51;100489.16;;;18.44;46.75
61554;BME280;47425;51.976;5.326;2023-04-22T12:41:18;100490.72;;;18.32;45.58
61554;BME280;47425;51.976;5.326;2023-04-22T12:43:44;100482.16;;;18.27;46.96
61554;BME280;47425;51.976;5.326;2023-04-22T12:46:13;100481.59;;;18.22;48.43
61554;BME280;47425;51.976;5.326;2023-04-22T12:48:40;100476.81;;;18.13;48.87
61554;BME280;47425;51.976;5.326;2023-04-22T12:51:07;100469.16;;;17.92;51.11
61554;BME280;47425;51.976;5.326;2023-04-22T12:53:33;100463.59;;;17.97;50.52
61554;BME280;47425;51.976;5.326;2023-04-22T12:56:00;100459.31;;;17.94;51.34
61554;BME280;47425;51.976;5.326;2023-04-22T12:58:26;100461.44;;;18.03;49.82
61554;BME280;47425;51.976;5.326;2023-04-22T13:00:52;100462.81;;;18.10;48.94
61554;BME280;47425;51.976;5.326;2023-04-22T13:03:20;100465.09;;;18.17;50.30
61554;BME280;47425;51.976;5.326;2023-04-22T13:05:48;100469.44;;;18.18;49.96